sensor_id;sensor_type;location;lat;lon;timestamp;P1;durP1;ratioP1;P2;durP2;ratioP2
28431;SDS011;15664;51.302;7.744;2022-09-13T00:01:25;6.57;;;3.03;;
28431;SDS011;15664;51.302;7.744;2022-09-13T00:03:50;7.73;;;3.10;;
28431;SDS011;15664;51.302;7.744;2022-09-13T00:06:24;7.12;;;3.17;;
28431;SDS011;15664;51.302;7.744;2022-09-13T00:08:49;9.32;;;3.47;;
28431;SDS011;15664;51.302;7.744;2022-09-13T00:13:50;8.73;;;3.63;;
28431;SDS011;15664;51.302;7.744;2022-09-13T00:16:16;6.35;;;2.97;;
28431;SDS011;15664;51.302;7.744;2022-09-13T00:18:44;8.68;;;3.17;;
28431;SDS011;15664;51.302;7.744;2022-09-13T00:21:11;6.97;;;2.93;;
28431;SDS011;15664;51.302;7.744;2022-09-13T00:23:39;6.00;;;2.83;;
28431;SDS011;15664;51.302;7.744;2022-09-13T00:26:11;6.38;;;3.30;;
28431;SDS011;15664;51.302;7.744;2022-09-13T00:28:38;6.63;;;3.30;;
28431;SDS011;15664;51.302;7.744;2022-09-13T00:31:04;6.20;;;3.07;;
28431;SDS011;15664;51.302;7.744;2022-09-13T00:33:31;7.20;;;2.88;;
28431;SDS011;15664;51.302;7.744;2022-09-13T00:35:57;6.70;;;2.80;;
28431;SDS011;15664;51.302;7.744;2022-09-13T00:38:22;7.63;;;3.03;;
28431;SDS011;15664;51.302;7.744;2022-09-13T00:40:48;6.53;;;3.17;;
28431;SDS011;15664;51.302;7.744;2022-09-13T00:43:17;8.40;;;3.50;;
28431;SDS011;15664;51.302;7.744;2022-09-13T00:45:44;8.88;;;3.80;;
28431;SDS011;15664;51.302;7.744;2022-09-13T00:48:16;5.82;;;3.33;;
28431;SDS011;15664;51.302;7.744;2022-09-13T00:50:52;6.83;;;3.40;;
28431;SDS011;15664;51.302;7.744;2022-09-13T00:53:32;6.47;;;3.13;;
28431;SDS011;15664;51.302;7.744;2022-09-13T00:56:05;7.55;;;3.58;;
28431;SDS011;15664;51.302;7.744;2022-09-13T00:58:44;6.40;;;3.20;;
28431;SDS011;15664;51.302;7.744;2022-09-13T01:01:14;6.15;;;3.25;;
28431;SDS011;15664;51.302;7.744;2022-09-13T01:03:42;7.60;;;3.17;;
28431;SDS011;15664;51.302;7.744;2022-09-13T01:06:14;7.05;;;3.55;;
28431;SDS011;15664;51.302;7.744;2022-09-13T01:08:42;6.32;;;3.05;;
28431;SDS011;15664;51.302;7.744;2022-09-13T01:11:18;8.05;;;3.72;;
28431;SDS011;15664;51.302;7.744;2022-09-13T01:13:48;6.72;;;3.38;;
28431;SDS011;15664;51.302;7.744;2022-09-13T01:16:15;7.77;;;3.50;;
28431;SDS011;15664;51.302;7.744;2022-09-13T01:18:40;5.85;;;3.00;;
28431;SDS011;15664;51.302;7.744;2022-09-13T01:24:04;7.22;;;3.13;;
28431;SDS011;15664;51.302;7.744;2022-09-13T01:35:40;6.10;;;3.08;;
28431;SDS011;15664;51.302;7.744;2022-09-13T01:38:20;8.07;;;3.40;;
28431;SDS011;15664;51.302;7.744;2022-09-13T01:40:58;6.70;;;3.40;;
28431;SDS011;15664;51.302;7.744;2022-09-13T01:43:47;8.77;;;3.00;;
28431;SDS011;15664;51.302;7.744;2022-09-13T01:46:31;6.03;;;3.15;;
28431;SDS011;15664;51.302;7.744;2022-09-13T01:49:20;5.80;;;2.92;;
28431;SDS011;15664;51.302;7.744;2022-09-13T01:51:56;5.90;;;3.10;;
28431;SDS011;15664;51.302;7.744;2022-09-13T02:00:03;6.03;;;3.40;;
28431;SDS011;15664;51.302;7.744;2022-09-13T02:05:45;6.82;;;3.20;;
28431;SDS011;15664;51.302;7.744;2022-09-13T02:08:17;8.57;;;3.53;;
28431;SDS011;15664;51.302;7.744;2022-09-13T02:10:55;9.82;;;3.88;;
28431;SDS011;15664;51.302;7.744;2022-09-13T02:13:33;7.07;;;3.42;;
28431;SDS011;15664;51.302;7.744;2022-09-13T02:16:02;7.70;;;3.42;;
28431;SDS011;15664;51.302;7.744;2022-09-13T02:18:34;6.40;;;3.17;;
28431;SDS011;15664;51.302;7.744;2022-09-13T02:21:08;6.65;;;3.05;;
28431;SDS011;15664;51.302;7.744;2022-09-13T02:23:41;6.00;;;3.15;;
28431;SDS011;15664;51.302;7.744;2022-09-13T02:26:12;7.88;;;3.38;;
28431;SDS011;15664;51.302;7.744;2022-09-13T02:28:40;8.10;;;3.55;;
28431;SDS011;15664;51.302;7.744;2022-09-13T02:31:11;6.57;;;3.10;;
28431;SDS011;15664;51.302;7.744;2022-09-13T02:33:43;7.80;;;3.15;;
28431;SDS011;15664;51.302;7.744;2022-09-13T02:36:16;7.43;;;3.35;;
28431;SDS011;15664;51.302;7.744;2022-09-13T02:38:49;6.28;;;3.00;;
28431;SDS011;15664;51.302;7.744;2022-09-13T02:44:11;6.93;;;3.10;;
28431;SDS011;15664;51.302;7.744;2022-09-13T02:47:13;8.82;;;3.40;;
28431;SDS011;15664;51.302;7.744;2022-09-13T02:49:32;7.15;;;3.40;;
28431;SDS011;15664;51.302;7.744;2022-09-13T02:52:09;7.13;;;3.03;;
28431;SDS011;15664;51.302;7.744;2022-09-13T03:00:31;7.10;;;3.28;;
28431;SDS011;15664;51.302;7.744;2022-09-13T03:02:57;8.18;;;3.80;;
28431;SDS011;15664;51.302;7.744;2022-09-13T03:05:26;6.30;;;3.43;;
28431;SDS011;15664;51.302;7.744;2022-09-13T03:07:51;9.00;;;3.63;;
28431;SDS011;15664;51.302;7.744;2022-09-13T03:10:18;6.47;;;3.60;;
28431;SDS011;15664;51.302;7.744;2022-09-13T03:15:56;7.00;;;3.20;;
28431;SDS011;15664;51.302;7.744;2022-09-13T03:18:38;6.45;;;3.20;;
28431;SDS011;15664;51.302;7.744;2022-09-13T03:29:58;8.10;;;3.33;;
28431;SDS011;15664;51.302;7.744;2022-09-13T03:35:03;8.57;;;3.80;;
28431;SDS011;15664;51.302;7.744;2022-09-13T03:40:16;6.88;;;3.60;;
28431;SDS011;15664;51.302;7.744;2022-09-13T03:45:30;7.53;;;2.97;;
28431;SDS011;15664;51.302;7.744;2022-09-13T03:48:01;6.23;;;3.07;;
28431;SDS011;15664;51.302;7.744;2022-09-13T03:50:28;7.38;;;3.25;;
28431;SDS011;15664;51.302;7.744;2022-09-13T03:52:55;8.68;;;4.28;;
28431;SDS011;15664;51.302;7.744;2022-09-13T03:55:27;9.07;;;4.53;;
28431;SDS011;15664;51.302;7.744;2022-09-13T03:57:56;9.27;;;4.30;;
28431;SDS011;15664;51.302;7.744;2022-09-13T04:00:21;7.13;;;3.20;;
28431;SDS011;15664;51.302;7.744;2022-09-13T04:02:47;7.90;;;3.33;;
28431;SDS011;15664;51.302;7.744;2022-09-13T04:05:12;7.20;;;2.90;;
28431;SDS011;15664;51.302;7.744;2022-09-13T04:07:37;5.80;;;3.13;;
28431;SDS011;15664;51.302;7.744;2022-09-13T04:10:03;6.50;;;3.20;;
28431;SDS011;15664;51.302;7.744;2022-09-13T04:12:28;6.60;;;3.05;;
28431;SDS011;15664;51.302;7.744;2022-09-13T04:14:55;5.93;;;2.97;;
28431;SDS011;15664;51.302;7.744;2022-09-13T04:17:20;6.20;;;3.17;;
28431;SDS011;15664;51.302;7.744;2022-09-13T04:19:45;7.27;;;2.97;;
28431;SDS011;15664;51.302;7.744;2022-09-13T04:22:11;8.80;;;3.83;;
28431;SDS011;15664;51.302;7.744;2022-09-13T04:24:36;7.30;;;3.20;;
28431;SDS011;15664;51.302;7.744;2022-09-13T04:27:03;10.07;;;3.33;;
28431;SDS011;15664;51.302;7.744;2022-09-13T04:29:29;9.87;;;4.07;;
28431;SDS011;15664;51.302;7.744;2022-09-13T04:31:55;6.18;;;3.38;;
28431;SDS011;15664;51.302;7.744;2022-09-13T04:34:21;7.57;;;3.10;;
28431;SDS011;15664;51.302;7.744;2022-09-13T04:36:47;5.28;;;2.70;;
28431;SDS011;15664;51.302;7.744;2022-09-13T04:39:13;5.68;;;3.10;;
28431;SDS011;15664;51.302;7.744;2022-09-13T04:41:39;7.23;;;3.50;;
28431;SDS011;15664;51.302;7.744;2022-09-13T04:44:05;7.78;;;3.63;;
28431;SDS011;15664;51.302;7.744;2022-09-13T04:46:31;7.23;;;3.10;;
28431;SDS011;15664;51.302;7.744;2022-09-13T04:48:56;6.43;;;3.23;;
28431;SDS011;15664;51.302;7.744;2022-09-13T04:51:21;6.53;;;3.30;;
28431;SDS011;15664;51.302;7.744;2022-09-13T04:53:50;7.28;;;3.38;;
28431;SDS011;15664;51.302;7.744;2022-09-13T04:56:18;8.50;;;3.73;;
28431;SDS011;15664;51.302;7.744;2022-09-13T04:58:44;7.45;;;3.50;;
28431;SDS011;15664;51.302;7.744;2022-09-13T05:01:09;9.73;;;3.90;;
28431;SDS011;15664;51.302;7.744;2022-09-13T05:03:35;7.55;;;3.47;;
28431;SDS011;15664;51.302;7.744;2022-09-13T05:06:01;7.60;;;3.27;;
28431;SDS011;15664;51.302;7.744;2022-09-13T05:08:27;6.55;;;3.28;;
28431;SDS011;15664;51.302;7.744;2022-09-13T05:10:52;6.70;;;3.50;;
28431;SDS011;15664;51.302;7.744;2022-09-13T05:13:17;6.30;;;3.17;;
28431;SDS011;15664;51.302;7.744;2022-09-13T05:15:43;6.60;;;3.30;;
28431;SDS011;15664;51.302;7.744;2022-09-13T05:18:08;6.60;;;2.93;;
28431;SDS011;15664;51.302;7.744;2022-09-13T05:20:33;8.03;;;3.47;;
28431;SDS011;15664;51.302;7.744;2022-09-13T05:22:59;6.25;;;3.30;;
28431;SDS011;15664;51.302;7.744;2022-09-13T05:25:24;10.43;;;4.13;;
28431;SDS011;15664;51.302;7.744;2022-09-13T05:27:50;8.40;;;3.63;;
28431;SDS011;15664;51.302;7.744;2022-09-13T05:30:15;7.40;;;3.63;;
28431;SDS011;15664;51.302;7.744;2022-09-13T05:32:40;8.10;;;3.90;;
28431;SDS011;15664;51.302;7.744;2022-09-13T05:35:06;7.93;;;3.47;;
28431;SDS011;15664;51.302;7.744;2022-09-13T05:37:32;9.52;;;4.13;;
28431;SDS011;15664;51.302;7.744;2022-09-13T05:39:57;8.57;;;3.72;;
28431;SDS011;15664;51.302;7.744;2022-09-13T05:42:23;7.60;;;3.57;;
28431;SDS011;15664;51.302;7.744;2022-09-13T05:44:48;7.47;;;3.63;;
28431;SDS011;15664;51.302;7.744;2022-09-13T05:47:13;7.97;;;3.83;;
28431;SDS011;15664;51.302;7.744;2022-09-13T05:49:39;8.27;;;3.93;;
28431;SDS011;15664;51.302;7.744;2022-09-13T05:52:04;8.37;;;3.70;;
28431;SDS011;15664;51.302;7.744;2022-09-13T05:54:29;7.40;;;3.83;;
28431;SDS011;15664;51.302;7.744;2022-09-13T05:56:55;9.47;;;4.20;;
28431;SDS011;15664;51.302;7.744;2022-09-13T05:59:21;8.90;;;3.95;;
28431;SDS011;15664;51.302;7.744;2022-09-13T06:01:47;7.47;;;4.00;;
28431;SDS011;15664;51.302;7.744;2022-09-13T06:04:12;9.43;;;3.90;;
28431;SDS011;15664;51.302;7.744;2022-09-13T06:06:38;7.55;;;3.70;;
28431;SDS011;15664;51.302;7.744;2022-09-13T06:09:04;9.33;;;4.13;;
28431;SDS011;15664;51.302;7.744;2022-09-13T06:11:30;7.07;;;3.60;;
28431;SDS011;15664;51.302;7.744;2022-09-13T06:13:56;7.78;;;3.50;;
28431;SDS011;15664;51.302;7.744;2022-09-13T06:16:21;8.80;;;3.73;;
28431;SDS011;15664;51.302;7.744;2022-09-13T06:18:47;7.87;;;3.70;;
28431;SDS011;15664;51.302;7.744;2022-09-13T06:21:17;7.50;;;3.83;;
28431;SDS011;15664;51.302;7.744;2022-09-13T06:23:44;6.83;;;3.57;;
28431;SDS011;15664;51.302;7.744;2022-09-13T06:26:18;7.53;;;3.47;;
28431;SDS011;15664;51.302;7.744;2022-09-13T06:28:48;6.55;;;3.17;;
28431;SDS011;15664;51.302;7.744;2022-09-13T06:31:15;6.47;;;3.20;;
28431;SDS011;15664;51.302;7.744;2022-09-13T06:33:42;6.70;;;3.10;;
28431;SDS011;15664;51.302;7.744;2022-09-13T06:36:17;7.90;;;3.67;;
28431;SDS011;15664;51.302;7.744;2022-09-13T06:38:44;7.47;;;3.30;;
28431;SDS011;15664;51.302;7.744;2022-09-13T06:41:11;7.10;;;3.00;;
28431;SDS011;15664;51.302;7.744;2022-09-13T06:43:38;8.35;;;3.40;;
28431;SDS011;15664;51.302;7.744;2022-09-13T06:48:31;7.17;;;3.33;;
28431;SDS011;15664;51.302;7.744;2022-09-13T06:50:58;5.53;;;3.30;;
28431;SDS011;15664;51.302;7.744;2022-09-13T06:53:25;5.93;;;3.35;;
28431;SDS011;15664;51.302;7.744;2022-09-13T06:58:38;7.63;;;3.90;;
28431;SDS011;15664;51.302;7.744;2022-09-13T07:01:15;6.97;;;3.53;;
28431;SDS011;15664;51.302;7.744;2022-09-13T07:03:49;7.45;;;3.00;;
28431;SDS011;15664;51.302;7.744;2022-09-13T07:06:22;5.47;;;2.58;;
28431;SDS011;15664;51.302;7.744;2022-09-13T07:08:49;6.53;;;2.95;;
28431;SDS011;15664;51.302;7.744;2022-09-13T07:11:16;5.78;;;2.60;;
28431;SDS011;15664;51.302;7.744;2022-09-13T07:13:53;6.33;;;2.87;;
28431;SDS011;15664;51.302;7.744;2022-09-13T07:16:20;6.97;;;2.60;;
28431;SDS011;15664;51.302;7.744;2022-09-13T07:18:51;5.50;;;2.70;;
28431;SDS011;15664;51.302;7.744;2022-09-13T07:21:23;6.70;;;3.08;;
28431;SDS011;15664;51.302;7.744;2022-09-13T07:23:49;7.47;;;3.20;;
28431;SDS011;15664;51.302;7.744;2022-09-13T07:26:15;5.40;;;2.73;;
28431;SDS011;15664;51.302;7.744;2022-09-13T07:28:41;5.53;;;2.40;;
28431;SDS011;15664;51.302;7.744;2022-09-13T07:31:13;4.70;;;2.80;;
28431;SDS011;15664;51.302;7.744;2022-09-13T07:33:40;6.07;;;2.55;;
28431;SDS011;15664;51.302;7.744;2022-09-13T07:36:07;8.00;;;2.55;;
28431;SDS011;15664;51.302;7.744;2022-09-13T07:38:34;5.35;;;2.63;;
28431;SDS011;15664;51.302;7.744;2022-09-13T07:41:00;6.47;;;2.67;;
28431;SDS011;15664;51.302;7.744;2022-09-13T07:43:27;5.80;;;2.53;;
28431;SDS011;15664;51.302;7.744;2022-09-13T07:46:00;5.10;;;2.42;;
28431;SDS011;15664;51.302;7.744;2022-09-13T07:48:27;4.40;;;2.40;;
28431;SDS011;15664;51.302;7.744;2022-09-13T07:51:01;6.47;;;3.08;;
28431;SDS011;15664;51.302;7.744;2022-09-13T07:53:37;6.20;;;2.58;;
28431;SDS011;15664;51.302;7.744;2022-09-13T07:56:11;7.37;;;2.73;;
28431;SDS011;15664;51.302;7.744;2022-09-13T07:58:39;5.80;;;2.50;;
28431;SDS011;15664;51.302;7.744;2022-09-13T08:01:06;6.28;;;2.45;;
28431;SDS011;15664;51.302;7.744;2022-09-13T08:03:39;6.30;;;3.15;;
28431;SDS011;15664;51.302;7.744;2022-09-13T08:06:05;5.03;;;2.60;;
28431;SDS011;15664;51.302;7.744;2022-09-13T08:08:31;4.85;;;2.75;;
28431;SDS011;15664;51.302;7.744;2022-09-13T08:10:57;4.97;;;2.42;;
28431;SDS011;15664;51.302;7.744;2022-09-13T08:13:23;7.10;;;3.58;;
28431;SDS011;15664;51.302;7.744;2022-09-13T08:15:49;6.60;;;2.80;;
28431;SDS011;15664;51.302;7.744;2022-09-13T08:18:16;5.72;;;2.42;;
28431;SDS011;15664;51.302;7.744;2022-09-13T08:20:42;4.70;;;2.20;;
28431;SDS011;15664;51.302;7.744;2022-09-13T08:23:08;4.93;;;2.53;;
28431;SDS011;15664;51.302;7.744;2022-09-13T08:25:35;5.70;;;2.13;;
28431;SDS011;15664;51.302;7.744;2022-09-13T08:28:06;5.60;;;2.60;;
28431;SDS011;15664;51.302;7.744;2022-09-13T08:30:32;5.77;;;2.60;;
28431;SDS011;15664;51.302;7.744;2022-09-13T08:32:59;5.45;;;2.70;;
28431;SDS011;15664;51.302;7.744;2022-09-13T08:35:26;5.97;;;2.80;;
28431;SDS011;15664;51.302;7.744;2022-09-13T08:37:52;5.15;;;2.40;;
28431;SDS011;15664;51.302;7.744;2022-09-13T08:40:18;4.97;;;2.60;;
28431;SDS011;15664;51.302;7.744;2022-09-13T08:45:58;4.68;;;2.42;;
28431;SDS011;15664;51.302;7.744;2022-09-13T08:48:31;5.03;;;2.33;;
28431;SDS011;15664;51.302;7.744;2022-09-13T08:51:02;4.82;;;2.70;;
28431;SDS011;15664;51.302;7.744;2022-09-13T08:53:30;5.93;;;2.83;;
28431;SDS011;15664;51.302;7.744;2022-09-13T09:01:41;6.28;;;2.70;;
28431;SDS011;15664;51.302;7.744;2022-09-13T09:04:23;5.10;;;2.50;;
28431;SDS011;15664;51.302;7.744;2022-09-13T09:07:02;4.85;;;2.72;;
28431;SDS011;15664;51.302;7.744;2022-09-13T09:09:35;5.43;;;2.40;;
28431;SDS011;15664;51.302;7.744;2022-09-13T09:14:55;6.22;;;2.60;;
28431;SDS011;15664;51.302;7.744;2022-09-13T09:17:26;6.07;;;2.72;;
28431;SDS011;15664;51.302;7.744;2022-09-13T09:20:17;6.20;;;2.55;;
28431;SDS011;15664;51.302;7.744;2022-09-13T09:22:47;5.60;;;2.50;;
28431;SDS011;15664;51.302;7.744;2022-09-13T09:25:15;4.85;;;2.55;;
28431;SDS011;15664;51.302;7.744;2022-09-13T09:27:40;5.73;;;2.77;;
28431;SDS011;15664;51.302;7.744;2022-09-13T09:30:11;5.37;;;2.67;;
28431;SDS011;15664;51.302;7.744;2022-09-13T09:40:55;5.32;;;2.63;;
28431;SDS011;15664;51.302;7.744;2022-09-13T09:43:24;5.63;;;3.07;;
28431;SDS011;15664;51.302;7.744;2022-09-13T09:45:57;6.45;;;3.08;;
28431;SDS011;15664;51.302;7.744;2022-09-13T09:48:28;5.32;;;2.95;;
28431;SDS011;15664;51.302;7.744;2022-09-13T09:51:00;6.38;;;2.83;;
28431;SDS011;15664;51.302;7.744;2022-09-13T09:53:32;5.82;;;3.05;;
28431;SDS011;15664;51.302;7.744;2022-09-13T09:56:13;5.10;;;2.50;;
28431;SDS011;15664;51.302;7.744;2022-09-13T09:58:47;7.40;;;2.95;;
28431;SDS011;15664;51.302;7.744;2022-09-13T10:01:18;6.13;;;3.00;;
28431;SDS011;15664;51.302;7.744;2022-09-13T10:03:49;5.65;;;2.85;;
28431;SDS011;15664;51.302;7.744;2022-09-13T10:06:18;6.40;;;2.95;;
28431;SDS011;15664;51.302;7.744;2022-09-13T10:09:27;6.45;;;2.97;;
28431;SDS011;15664;51.302;7.744;2022-09-13T10:14:29;5.90;;;2.72;;
28431;SDS011;15664;51.302;7.744;2022-09-13T10:19:54;4.73;;;2.53;;
28431;SDS011;15664;51.302;7.744;2022-09-13T10:22:21;5.93;;;2.90;;
28431;SDS011;15664;51.302;7.744;2022-09-13T10:24:47;5.70;;;2.70;;
28431;SDS011;15664;51.302;7.744;2022-09-13T10:32:54;5.65;;;2.92;;
28431;SDS011;15664;51.302;7.744;2022-09-13T10:35:20;5.78;;;2.70;;
28431;SDS011;15664;51.302;7.744;2022-09-13T10:37:46;6.07;;;2.77;;
28431;SDS011;15664;51.302;7.744;2022-09-13T10:40:30;4.80;;;2.60;;
28431;SDS011;15664;51.302;7.744;2022-09-13T10:43:03;6.45;;;3.05;;
28431;SDS011;15664;51.302;7.744;2022-09-13T10:45:39;6.20;;;2.80;;
28431;SDS011;15664;51.302;7.744;2022-09-13T10:48:09;4.25;;;2.38;;
28431;SDS011;15664;51.302;7.744;2022-09-13T10:50:38;4.93;;;2.45;;
28431;SDS011;15664;51.302;7.744;2022-09-13T10:53:03;6.47;;;2.50;;
28431;SDS011;15664;51.302;7.744;2022-09-13T10:55:53;5.95;;;2.50;;
28431;SDS011;15664;51.302;7.744;2022-09-13T10:58:19;5.73;;;2.33;;
28431;SDS011;15664;51.302;7.744;2022-09-13T11:09:15;5.10;;;2.30;;
28431;SDS011;15664;51.302;7.744;2022-09-13T11:16:50;3.50;;;2.10;;
28431;SDS011;15664;51.302;7.744;2022-09-13T11:28:21;4.55;;;2.03;;
28431;SDS011;15664;51.302;7.744;2022-09-13T11:31:11;4.30;;;2.05;;
28431;SDS011;15664;51.302;7.744;2022-09-13T11:34:10;5.55;;;2.28;;
28431;SDS011;15664;51.302;7.744;2022-09-13T11:36:56;5.97;;;2.30;;
28431;SDS011;15664;51.302;7.744;2022-09-13T11:42:27;4.95;;;2.05;;
28431;SDS011;15664;51.302;7.744;2022-09-13T11:45:29;4.70;;;2.03;;
28431;SDS011;15664;51.302;7.744;2022-09-13T11:51:04;4.55;;;2.20;;
28431;SDS011;15664;51.302;7.744;2022-09-13T11:54:05;4.38;;;2.50;;
28431;SDS011;15664;51.302;7.744;2022-09-13T11:56:47;4.15;;;2.20;;
28431;SDS011;15664;51.302;7.744;2022-09-13T12:02:49;4.47;;;1.90;;
28431;SDS011;15664;51.302;7.744;2022-09-13T12:05:13;4.40;;;2.30;;
28431;SDS011;15664;51.302;7.744;2022-09-13T12:10:18;4.28;;;2.00;;
28431;SDS011;15664;51.302;7.744;2022-09-13T12:12:49;4.55;;;1.90;;
28431;SDS011;15664;51.302;7.744;2022-09-13T12:15:28;8.13;;;1.88;;
28431;SDS011;15664;51.302;7.744;2022-09-13T12:18:03;5.95;;;2.47;;
28431;SDS011;15664;51.302;7.744;2022-09-13T12:20:51;4.95;;;2.28;;
28431;SDS011;15664;51.302;7.744;2022-09-13T12:23:22;4.18;;;2.30;;
28431;SDS011;15664;51.302;7.744;2022-09-13T12:26:08;4.30;;;2.00;;
28431;SDS011;15664;51.302;7.744;2022-09-13T12:28:47;4.88;;;2.40;;
28431;SDS011;15664;51.302;7.744;2022-09-13T12:31:22;5.15;;;2.80;;
28431;SDS011;15664;51.302;7.744;2022-09-13T12:33:50;4.65;;;2.63;;
28431;SDS011;15664;51.302;7.744;2022-09-13T12:39:21;5.07;;;2.30;;
28431;SDS011;15664;51.302;7.744;2022-09-13T12:47:59;6.97;;;2.20;;
28431;SDS011;15664;51.302;7.744;2022-09-13T12:50:57;4.82;;;2.60;;
28431;SDS011;15664;51.302;7.744;2022-09-13T12:53:53;6.30;;;2.40;;
28431;SDS011;15664;51.302;7.744;2022-09-13T12:56:46;4.05;;;2.15;;
28431;SDS011;15664;51.302;7.744;2022-09-13T12:59:27;5.35;;;2.10;;
28431;SDS011;15664;51.302;7.744;2022-09-13T13:02:02;5.70;;;2.17;;
28431;SDS011;15664;51.302;7.744;2022-09-13T13:04:49;5.50;;;1.95;;
28431;SDS011;15664;51.302;7.744;2022-09-13T13:07:19;4.63;;;2.00;;
28431;SDS011;15664;51.302;7.744;2022-09-13T13:09:47;3.75;;;1.80;;
28431;SDS011;15664;51.302;7.744;2022-09-13T13:12:28;5.75;;;2.05;;
28431;SDS011;15664;51.302;7.744;2022-09-13T13:15:05;2.92;;;1.73;;
28431;SDS011;15664;51.302;7.744;2022-09-13T13:17:54;4.60;;;2.10;;
28431;SDS011;15664;51.302;7.744;2022-09-13T13:33:50;3.90;;;1.90;;
28431;SDS011;15664;51.302;7.744;2022-09-13T13:36:22;5.68;;;2.30;;
28431;SDS011;15664;51.302;7.744;2022-09-13T13:38:50;5.72;;;1.70;;
28431;SDS011;15664;51.302;7.744;2022-09-13T13:46:39;7.88;;;2.03;;
28431;SDS011;15664;51.302;7.744;2022-09-13T13:57:32;5.35;;;2.25;;
28431;SDS011;15664;51.302;7.744;2022-09-13T14:00:18;6.85;;;2.35;;
28431;SDS011;15664;51.302;7.744;2022-09-13T14:11:06;4.22;;;2.00;;
28431;SDS011;15664;51.302;7.744;2022-09-13T14:13:43;6.22;;;2.30;;
28431;SDS011;15664;51.302;7.744;2022-09-13T14:21:38;4.32;;;2.83;;
28431;SDS011;15664;51.302;7.744;2022-09-13T14:24:19;6.30;;;2.95;;
28431;SDS011;15664;51.302;7.744;2022-09-13T14:26:52;6.07;;;2.70;;
28431;SDS011;15664;51.302;7.744;2022-09-13T14:29:23;9.15;;;2.33;;
28431;SDS011;15664;51.302;7.744;2022-09-13T14:31:53;5.90;;;2.63;;
28431;SDS011;15664;51.302;7.744;2022-09-13T14:35:19;5.68;;;2.40;;
28431;SDS011;15664;51.302;7.744;2022-09-13T14:37:36;5.68;;;3.05;;
28431;SDS011;15664;51.302;7.744;2022-09-13T14:42:41;4.70;;;2.30;;
28431;SDS011;15664;51.302;7.744;2022-09-13T14:45:11;5.40;;;2.35;;
28431;SDS011;15664;51.302;7.744;2022-09-13T14:47:49;6.47;;;2.55;;
28431;SDS011;15664;51.302;7.744;2022-09-13T14:50:23;5.18;;;2.72;;
28431;SDS011;15664;51.302;7.744;2022-09-13T14:52:55;6.43;;;2.60;;
28431;SDS011;15664;51.302;7.744;2022-09-13T14:55:32;6.18;;;2.90;;
28431;SDS011;15664;51.302;7.744;2022-09-13T14:58:12;7.88;;;3.10;;
28431;SDS011;15664;51.302;7.744;2022-09-13T15:00:51;6.00;;;2.90;;
28431;SDS011;15664;51.302;7.744;2022-09-13T15:03:23;5.85;;;3.20;;
28431;SDS011;15664;51.302;7.744;2022-09-13T15:05:50;8.70;;;3.25;;
28431;SDS011;15664;51.302;7.744;2022-09-13T15:08:24;5.93;;;2.90;;
28431;SDS011;15664;51.302;7.744;2022-09-13T15:11:03;6.25;;;2.90;;
28431;SDS011;15664;51.302;7.744;2022-09-13T15:13:30;6.70;;;3.67;;
28431;SDS011;15664;51.302;7.744;2022-09-13T15:15:55;8.93;;;3.37;;
28431;SDS011;15664;51.302;7.744;2022-09-13T15:18:25;7.35;;;3.40;;
28431;SDS011;15664;51.302;7.744;2022-09-13T15:21:04;7.75;;;3.65;;
28431;SDS011;15664;51.302;7.744;2022-09-13T15:23:40;8.52;;;4.00;;
28431;SDS011;15664;51.302;7.744;2022-09-13T15:26:11;7.43;;;3.63;;
28431;SDS011;15664;51.302;7.744;2022-09-13T15:31:08;10.40;;;3.70;;
28431;SDS011;15664;51.302;7.744;2022-09-13T15:33:35;6.25;;;3.67;;
28431;SDS011;15664;51.302;7.744;2022-09-13T15:36:14;8.38;;;4.03;;
28431;SDS011;15664;51.302;7.744;2022-09-13T15:38:55;8.52;;;3.88;;
28431;SDS011;15664;51.302;7.744;2022-09-13T15:41:26;8.18;;;3.90;;
28431;SDS011;15664;51.302;7.744;2022-09-13T15:43:53;8.43;;;4.45;;
28431;SDS011;15664;51.302;7.744;2022-09-13T15:46:18;7.23;;;4.03;;
28431;SDS011;15664;51.302;7.744;2022-09-13T15:48:51;8.30;;;4.10;;
28431;SDS011;15664;51.302;7.744;2022-09-13T15:51:19;8.43;;;4.10;;
28431;SDS011;15664;51.302;7.744;2022-09-13T15:53:45;7.70;;;3.47;;
28431;SDS011;15664;51.302;7.744;2022-09-13T15:56:19;7.50;;;3.80;;
28431;SDS011;15664;51.302;7.744;2022-09-13T15:58:46;11.10;;;4.47;;
28431;SDS011;15664;51.302;7.744;2022-09-13T16:01:12;8.83;;;4.33;;
28431;SDS011;15664;51.302;7.744;2022-09-13T16:03:39;9.13;;;4.20;;
28431;SDS011;15664;51.302;7.744;2022-09-13T16:06:05;11.02;;;3.80;;
28431;SDS011;15664;51.302;7.744;2022-09-13T16:08:33;6.78;;;3.72;;
28431;SDS011;15664;51.302;7.744;2022-09-13T16:10:59;8.53;;;4.03;;
28431;SDS011;15664;51.302;7.744;2022-09-13T16:13:24;7.73;;;3.80;;
28431;SDS011;15664;51.302;7.744;2022-09-13T16:15:49;6.25;;;3.67;;
28431;SDS011;15664;51.302;7.744;2022-09-13T16:18:15;9.00;;;3.80;;
28431;SDS011;15664;51.302;7.744;2022-09-13T16:20:41;6.30;;;3.20;;
28431;SDS011;15664;51.302;7.744;2022-09-13T16:23:07;8.85;;;3.75;;
28431;SDS011;15664;51.302;7.744;2022-09-13T16:25:32;8.70;;;3.90;;
28431;SDS011;15664;51.302;7.744;2022-09-13T16:27:59;8.75;;;3.60;;
28431;SDS011;15664;51.302;7.744;2022-09-13T16:30:24;8.50;;;3.30;;
28431;SDS011;15664;51.302;7.744;2022-09-13T16:32:51;7.40;;;3.70;;
28431;SDS011;15664;51.302;7.744;2022-09-13T16:35:17;7.40;;;3.80;;
28431;SDS011;15664;51.302;7.744;2022-09-13T16:37:42;6.82;;;3.65;;
28431;SDS011;15664;51.302;7.744;2022-09-13T16:40:08;8.77;;;3.50;;
28431;SDS011;15664;51.302;7.744;2022-09-13T16:42:34;8.07;;;3.65;;
28431;SDS011;15664;51.302;7.744;2022-09-13T16:45:00;10.33;;;3.50;;
28431;SDS011;15664;51.302;7.744;2022-09-13T16:47:25;8.00;;;3.80;;
28431;SDS011;15664;51.302;7.744;2022-09-13T16:49:50;6.80;;;3.57;;
28431;SDS011;15664;51.302;7.744;2022-09-13T16:52:16;7.30;;;3.92;;
28431;SDS011;15664;51.302;7.744;2022-09-13T16:54:41;10.13;;;5.80;;
28431;SDS011;15664;51.302;7.744;2022-09-13T16:57:10;9.38;;;6.35;;
28431;SDS011;15664;51.302;7.744;2022-09-13T16:59:37;16.25;;;7.85;;
28431;SDS011;15664;51.302;7.744;2022-09-13T17:02:05;11.60;;;7.10;;
28431;SDS011;15664;51.302;7.744;2022-09-13T17:04:31;11.48;;;6.50;;
28431;SDS011;15664;51.302;7.744;2022-09-13T17:06:56;12.43;;;6.70;;
28431;SDS011;15664;51.302;7.744;2022-09-13T17:09:22;11.48;;;7.22;;
28431;SDS011;15664;51.302;7.744;2022-09-13T17:11:51;12.35;;;7.72;;
28431;SDS011;15664;51.302;7.744;2022-09-13T17:14:17;16.47;;;9.80;;
28431;SDS011;15664;51.302;7.744;2022-09-13T17:16:44;12.87;;;8.57;;
28431;SDS011;15664;51.302;7.744;2022-09-13T17:19:13;15.77;;;9.68;;
28431;SDS011;15664;51.302;7.744;2022-09-13T17:21:41;14.98;;;8.98;;
28431;SDS011;15664;51.302;7.744;2022-09-13T17:24:07;13.25;;;8.68;;
28431;SDS011;15664;51.302;7.744;2022-09-13T17:26:32;15.87;;;9.17;;
28431;SDS011;15664;51.302;7.744;2022-09-13T17:28:58;13.53;;;8.73;;
28431;SDS011;15664;51.302;7.744;2022-09-13T17:31:24;14.43;;;8.97;;
28431;SDS011;15664;51.302;7.744;2022-09-13T17:33:49;14.73;;;8.88;;
28431;SDS011;15664;51.302;7.744;2022-09-13T17:36:14;13.23;;;8.70;;
28431;SDS011;15664;51.302;7.744;2022-09-13T17:38:40;13.53;;;8.13;;
28431;SDS011;15664;51.302;7.744;2022-09-13T17:41:07;14.00;;;8.43;;
28431;SDS011;15664;51.302;7.744;2022-09-13T17:43:37;15.25;;;9.13;;
28431;SDS011;15664;51.302;7.744;2022-09-13T17:46:08;14.68;;;8.18;;
28431;SDS011;15664;51.302;7.744;2022-09-13T17:48:36;14.77;;;8.30;;
28431;SDS011;15664;51.302;7.744;2022-09-13T17:51:02;15.27;;;8.48;;
28431;SDS011;15664;51.302;7.744;2022-09-13T17:53:29;13.82;;;9.13;;
28431;SDS011;15664;51.302;7.744;2022-09-13T17:55:55;13.97;;;8.70;;
28431;SDS011;15664;51.302;7.744;2022-09-13T17:58:22;14.60;;;8.63;;
28431;SDS011;15664;51.302;7.744;2022-09-13T18:00:48;14.77;;;8.40;;
28431;SDS011;15664;51.302;7.744;2022-09-13T18:03:13;13.37;;;8.10;;